Time;durP1;ratioP1;P1;durP2;ratioP2;P2;SDS_P1;SDS_P2;PMS_P1;PMS_P2;Temp;Humidity;BMP_temperature;BMP_pressure;BME280_temperature;BME280_humidity;BME280_pressure;Samples;Min_cycle;Max_cycle;Signal;HPM_P1;HPM_P2
2023/04/05 00:01:52;;;;;;;9.25;6.18;;;;;;;;;;4966953;28;98532;-76
2023/04/05 00:04:19;;;;;;;12.77;6.22;;;;;;;;;;4967955;28;99796;-76
2023/04/05 00:06:51;;;;;;;10.20;5.90;;;;;;;;;;4966397;28;99796;-75
2023/04/05 00:09:19;;;;;;;9.18;6.38;;;;;;;;;;4967345;28;98122;-76
2023/04/05 00:11:46;;;;;;;8.77;6.32;;;;;;;;;;4966107;28;98713;-76
2023/04/05 00:14:12;;;;;;;9.27;6.72;;;;;;;;;;4966675;28;99372;-76
2023/04/05 00:16:39;;;;;;;7.20;6.43;;;;;;;;;;4972139;28;98336;-76
2023/04/05 00:19:06;;;;;;;8.95;6.40;;;;;;;;;;4970402;28;99011;-76
2023/04/05 00:21:33;;;;;;;12.60;7.05;;;;;;;;;;4970111;28;98571;-76
2023/04/05 00:23:59;;;;;;;9.30;6.40;;;;;;;;;;4970309;28;99509;-76
2023/04/05 00:26:26;;;;;;;6.95;6.13;;;;;;;;;;4971123;28;100289;-76
2023/04/05 00:28:55;;;;;;;8.85;6.10;;;;;;;;;;4969360;28;98293;-75
2023/04/05 00:31:22;;;;;;;9.80;6.22;;;;;;;;;;4969908;28;99539;-76
2023/04/05 00:33:48;;;;;;;12.48;5.90;;;;;;;;;;4985363;28;98719;-75
2023/04/05 00:36:16;;;;;;;8.20;6.05;;;;;;;;;;4969743;28;98419;-75
2023/04/05 00:38:43;;;;;;;8.82;6.55;;;;;;;;;;4973637;28;98572;-76
2023/04/05 00:41:10;;;;;;;13.65;7.93;;;;;;;;;;4985463;28;98589;-76
2023/04/05 00:43:36;;;;;;;11.30;6.45;;;;;;;;;;4969082;28;101240;-76
2023/04/05 00:46:04;;;;;;;6.88;5.70;;;;;;;;;;4970055;28;98787;-76
2023/04/05 00:48:31;;;;;;;6.95;6.30;;;;;;;;;;4970615;28;98464;-76
2023/04/05 00:50:58;;;;;;;11.65;6.43;;;;;;;;;;4967705;28;98986;-77
2023/04/05 00:53:26;;;;;;;6.65;5.50;;;;;;;;;;4969598;28;101038;-77
2023/04/05 00:55:52;;;;;;;13.48;6.70;;;;;;;;;;4973830;28;98083;-77
2023/04/05 00:58:23;;;;;;;8.35;6.15;;;;;;;;;;4973560;28;98139;-77
2023/04/05 01:01:12;;;;;;;8.35;6.10;;;;;;;;;;4990029;28;101151;-76
2023/04/05 01:03:45;;;;;;;7.95;6.07;;;;;;;;;;4988411;28;101011;-77
2023/04/05 01:06:19;;;;;;;10.43;6.72;;;;;;;;;;4988783;28;102158;-76
2023/04/05 01:09:09;;;;;;;10.15;6.68;;;;;;;;;;4988178;28;98340;-76
2023/04/05 01:11:37;;;;;;;9.88;6.55;;;;;;;;;;4979835;28;98502;-76
2023/04/05 01:14:03;;;;;;;8.85;6.30;;;;;;;;;;4968201;28;100022;-76
2023/04/05 01:16:30;;;;;;;12.00;7.00;;;;;;;;;;4978162;28;98018;-76
2023/04/05 01:18:57;;;;;;;9.63;6.55;;;;;;;;;;4987434;28;99660;-76
2023/04/05 01:21:44;;;;;;;7.60;6.05;;;;;;;;;;4989223;28;98732;-76
2023/04/05 01:24:31;;;;;;;13.90;6.70;;;;;;;;;;4980544;28;98133;-75
2023/04/05 01:27:09;;;;;;;10.52;6.93;;;;;;;;;;4950581;28;98984;-75
2023/04/05 01:29:36;;;;;;;12.45;7.72;;;;;;;;;;4950263;28;98296;-76
2023/04/05 01:32:08;;;;;;;7.90;6.25;;;;;;;;;;4949356;28;98268;-76
2023/04/05 01:34:50;;;;;;;11.68;6.72;;;;;;;;;;4967988;28;100014;-76
2023/04/05 01:37:18;;;;;;;10.57;7.07;;;;;;;;;;4969530;28;98175;-76
2023/04/05 01:39:49;;;;;;;10.82;6.75;;;;;;;;;;4968744;28;98760;-75
2023/04/05 01:42:20;;;;;;;12.57;6.53;;;;;;;;;;4969102;28;98760;-75
2023/04/05 01:44:47;;;;;;;11.52;7.28;;;;;;;;;;4969448;28;99163;-75
2023/04/05 01:47:13;;;;;;;7.70;6.90;;;;;;;;;;4971195;28;98932;-75
2023/04/05 01:49:40;;;;;;;8.27;6.22;;;;;;;;;;4970059;28;98349;-75
2023/04/05 01:52:06;;;;;;;10.80;7.03;;;;;;;;;;4967360;28;100301;-75
2023/04/05 01:54:32;;;;;;;7.38;6.63;;;;;;;;;;4967060;28;101710;-75
2023/04/05 01:56:59;;;;;;;9.20;6.93;;;;;;;;;;4969105;28;98345;-75
2023/04/05 01:59:25;;;;;;;9.10;6.97;;;;;;;;;;4966797;28;98673;-75
2023/04/05 02:01:52;;;;;;;7.97;5.97;;;;;;;;;;4968090;28;98984;-75
2023/04/05 02:04:18;;;;;;;8.45;6.72;;;;;;;;;;4969571;28;98441;-76
2023/04/05 02:06:44;;;;;;;7.43;6.72;;;;;;;;;;4967465;28;99716;-76
2023/04/05 02:09:11;;;;;;;9.85;7.03;;;;;;;;;;4970748;28;98253;-76
2023/04/05 02:11:37;;;;;;;13.35;6.85;;;;;;;;;;4966524;28;101027;-76
2023/04/05 02:14:04;;;;;;;13.48;6.85;;;;;;;;;;4967618;28;100129;-76
2023/04/05 02:16:33;;;;;;;11.13;7.38;;;;;;;;;;4969132;28;98277;-76
2023/04/05 02:18:59;;;;;;;13.07;7.57;;;;;;;;;;4969030;28;98537;-76
2023/04/05 02:21:25;;;;;;;10.75;7.22;;;;;;;;;;4967932;28;98837;-76
2023/04/05 02:23:52;;;;;;;9.75;6.68;;;;;;;;;;4968747;28;98393;-76
2023/04/05 02:26:19;;;;;;;8.20;6.70;;;;;;;;;;4970191;28;98417;-75
2023/04/05 02:28:46;;;;;;;8.10;7.22;;;;;;;;;;4971136;28;98732;-75
2023/04/05 02:31:13;;;;;;;19.70;7.30;;;;;;;;;;4969795;28;98344;-75
2023/04/05 02:33:40;;;;;;;13.73;6.35;;;;;;;;;;4969396;28;99211;-75
2023/04/05 02:36:10;;;;;;;10.10;6.70;;;;;;;;;;4967178;28;98230;-75
2023/04/05 02:38:37;;;;;;;11.80;6.85;;;;;;;;;;4969355;28;100236;-75
2023/04/05 02:41:07;;;;;;;11.07;7.13;;;;;;;;;;4973335;28;99187;-76
2023/04/05 02:43:34;;;;;;;7.38;6.60;;;;;;;;;;4971335;28;98319;-75
2023/04/05 02:46:00;;;;;;;10.15;7.03;;;;;;;;;;4967661;28;98837;-75
2023/04/05 02:48:26;;;;;;;11.52;6.18;;;;;;;;;;4967023;28;101965;-75
2023/04/05 02:50:54;;;;;;;12.05;7.07;;;;;;;;;;4969436;28;98574;-75
2023/04/05 02:53:21;;;;;;;7.70;6.90;;;;;;;;;;4967362;28;101033;-75
2023/04/05 02:55:55;;;;;;;9.55;7.43;;;;;;;;;;4965905;28;98420;-75
2023/04/05 02:58:22;;;;;;;9.32;6.78;;;;;;;;;;4968902;28;99340;-75
2023/04/05 03:00:53;;;;;;;11.20;7.00;;;;;;;;;;4965878;28;101598;-74
2023/04/05 03:03:28;;;;;;;7.32;6.55;;;;;;;;;;4966375;28;98494;-75
2023/04/05 03:06:00;;;;;;;10.50;7.25;;;;;;;;;;4966390;28;100784;-75
2023/04/05 03:08:32;;;;;;;8.48;7.40;;;;;;;;;;4966852;28;101818;-75
2023/04/05 03:11:02;;;;;;;8.63;7.32;;;;;;;;;;4965734;28;98279;-75
2023/04/05 03:13:29;;;;;;;7.85;7.15;;;;;;;;;;4969518;28;101037;-75
2023/04/05 03:15:56;;;;;;;14.52;7.43;;;;;;;;;;4978000;28;98312;-75
2023/04/05 03:18:26;;;;;;;11.75;7.85;;;;;;;;;;4986097;28;99612;-75
2023/04/05 03:20:56;;;;;;;11.48;7.57;;;;;;;;;;4986063;28;100029;-75
2023/04/05 03:23:27;;;;;;;15.80;6.55;;;;;;;;;;4986976;28;98914;-75
2023/04/05 03:25:55;;;;;;;9.77;6.93;;;;;;;;;;4969199;28;101007;-75
2023/04/05 03:28:24;;;;;;;10.35;7.07;;;;;;;;;;4966676;28;100000;-75
2023/04/05 03:30:54;;;;;;;8.20;7.35;;;;;;;;;;4966397;28;98091;-74
2023/04/05 03:33:21;;;;;;;16.80;7.55;;;;;;;;;;4966343;28;98734;-75
2023/04/05 03:35:49;;;;;;;11.75;7.63;;;;;;;;;;4969388;28;100922;-75
2023/04/05 03:38:16;;;;;;;8.75;7.60;;;;;;;;;;4965804;28;98630;-74
2023/04/05 03:40:56;;;;;;;14.63;7.45;;;;;;;;;;4965938;28;101697;-74
2023/04/05 03:43:23;;;;;;;15.23;8.07;;;;;;;;;;4966396;28;98488;-75
2023/04/05 03:45:49;;;;;;;11.73;8.00;;;;;;;;;;4967005;28;98375;-74
2023/04/05 03:48:19;;;;;;;12.07;8.02;;;;;;;;;;4967842;28;98870;-75
2023/04/05 03:50:47;;;;;;;15.43;8.77;;;;;;;;;;4966600;28;99225;-75
2023/04/05 03:53:17;;;;;;;8.88;7.53;;;;;;;;;;4968942;28;99059;-75
2023/04/05 03:55:49;;;;;;;15.18;8.82;;;;;;;;;;4969507;28;98920;-75
2023/04/05 03:58:19;;;;;;;10.25;8.52;;;;;;;;;;4973619;28;98251;-75
2023/04/05 04:00:46;;;;;;;10.38;8.82;;;;;;;;;;4968388;28;101144;-75
2023/04/05 04:03:17;;;;;;;12.50;7.72;;;;;;;;;;4971194;28;98384;-75
2023/04/05 04:05:46;;;;;;;10.65;7.93;;;;;;;;;;4971259;28;98687;-75
2023/04/05 04:08:13;;;;;;;11.93;8.93;;;;;;;;;;4968814;28;101747;-75
2023/04/05 04:10:39;;;;;;;9.60;7.80;;;;;;;;;;4970797;28;98047;-75
2023/04/05 04:13:27;;;;;;;15.15;7.80;;;;;;;;;;4968743;28;100893;-75
2023/04/05 04:16:12;;;;;;;9.18;7.72;;;;;;;;;;4968995;28;98460;-75
2023/04/05 04:18:45;;;;;;;14.93;8.20;;;;;;;;;;4973567;28;98175;-75
2023/04/05 04:21:25;;;;;;;9.50;8.48;;;;;;;;;;4968454;28;101503;-75
2023/04/05 04:24:02;;;;;;;14.68;8.48;;;;;;;;;;4971070;28;98253;-75
2023/04/05 04:26:47;;;;;;;9.85;8.70;;;;;;;;;;4967758;28;98437;-75
2023/04/05 04:29:29;;;;;;;12.48;9.38;;;;;;;;;;4968158;28;100911;-74
2023/04/05 04:32:14;;;;;;;14.55;8.77;;;;;;;;;;4968375;28;98232;-74
2023/04/05 04:34:57;;;;;;;;;;;;;;;;;;4985622;28;100817;-74
2023/04/05 04:37:37;;;;;;;13.45;8.00;;;;;;;;;;4968630;28;98891;-75
2023/04/05 04:40:39;;;;;;;13.32;8.80;;;;;;;;;;4985968;28;98375;-75
2023/04/05 04:43:42;;;;;;;14.30;8.95;;;;;;;;;;4966370;28;98629;-75
2023/04/05 04:46:17;;;;;;;14.63;8.52;;;;;;;;;;4970188;28;98171;-75
2023/04/05 04:48:56;;;;;;;14.60;9.00;;;;;;;;;;4969505;28;98513;-75
2023/04/05 04:51:29;;;;;;;11.80;8.80;;;;;;;;;;4970204;28;100082;-75
2023/04/05 04:53:56;;;;;;;19.92;9.18;;;;;;;;;;4969781;28;98594;-75
2023/04/05 04:56:22;;;;;;;10.75;9.23;;;;;;;;;;4969546;28;98964;-74
2023/04/05 04:58:52;;;;;;;12.98;8.73;;;;;;;;;;4987324;28;98953;-75
2023/04/05 05:01:18;;;;;;;12.00;9.38;;;;;;;;;;4990187;28;98458;-75
2023/04/05 05:03:45;;;;;;;14.73;10.07;;;;;;;;;;4987942;28;98601;-75
2023/04/05 05:06:15;;;;;;;14.98;9.50;;;;;;;;;;4992943;28;98796;-75
2023/04/05 05:08:41;;;;;;;15.57;9.82;;;;;;;;;;4988777;28;98456;-75
2023/04/05 05:11:08;;;;;;;11.02;9.68;;;;;;;;;;4974901;28;100489;-75
2023/04/05 05:13:35;;;;;;;17.73;9.27;;;;;;;;;;4970348;28;98304;-75
2023/04/05 05:16:03;;;;;;;14.18;9.13;;;;;;;;;;4969665;28;99377;-75
2023/04/05 05:18:29;;;;;;;13.10;10.18;;;;;;;;;;4968935;28;100062;-75
2023/04/05 05:20:56;;;;;;;22.20;10.15;;;;;;;;;;4970016;28;98285;-75
2023/04/05 05:23:22;;;;;;;12.52;9.90;;;;;;;;;;4970197;28;98483;-75
2023/04/05 05:25:49;;;;;;;18.17;10.18;;;;;;;;;;4967609;28;99931;-75
2023/04/05 05:28:15;;;;;;;16.08;10.50;;;;;;;;;;4972488;28;98456;-75
2023/04/05 05:30:42;;;;;;;13.90;10.70;;;;;;;;;;4969544;28;99947;-74
2023/04/05 05:33:09;;;;;;;11.70;9.30;;;;;;;;;;4969891;28;98289;-75
2023/04/05 05:35:36;;;;;;;13.45;9.70;;;;;;;;;;4969899;28;98571;-75
2023/04/05 05:38:03;;;;;;;12.60;9.52;;;;;;;;;;4968185;28;98985;-75
2023/04/05 05:40:32;;;;;;;13.90;9.57;;;;;;;;;;4969394;28;99487;-75
2023/04/05 05:42:58;;;;;;;12.40;9.82;;;;;;;;;;4969351;28;99470;-76
2023/04/05 05:45:26;;;;;;;18.70;10.27;;;;;;;;;;4969022;28;98891;-76
2023/04/05 05:47:52;;;;;;;16.08;11.13;;;;;;;;;;4969626;28;98282;-75
2023/04/05 05:50:19;;;;;;;13.45;9.25;;;;;;;;;;4972932;28;98593;-75
2023/04/05 05:52:45;;;;;;;14.07;10.07;;;;;;;;;;4968964;28;98317;-75
2023/04/05 05:55:12;;;;;;;11.98;9.68;;;;;;;;;;4969344;28;99924;-75
2023/04/05 05:57:38;;;;;;;16.85;10.68;;;;;;;;;;4968217;28;99908;-75
2023/04/05 06:00:08;;;;;;;15.43;10.65;;;;;;;;;;4967712;28;98260;-75
2023/04/05 06:02:37;;;;;;;28.52;10.13;;;;;;;;;;4967049;28;98824;-75
2023/04/05 06:05:04;;;;;;;13.55;10.02;;;;;;;;;;4969155;28;99831;-75
2023/04/05 06:07:34;;;;;;;19.75;9.90;;;;;;;;;;4968344;28;98213;-75
2023/04/05 06:10:00;;;;;;;24.50;10.15;;;;;;;;;;4967995;28;99519;-75
2023/04/05 06:12:27;;;;;;;21.05;10.25;;;;;;;;;;4972130;28;99882;-77
2023/04/05 06:14:54;;;;;;;14.05;10.52;;;;;;;;;;4968244;28;99532;-76
2023/04/05 06:17:20;;;;;;;17.17;9.40;;;;;;;;;;4968886;28;99877;-75
2023/04/05 06:19:46;;;;;;;17.48;10.30;;;;;;;;;;4968979;28;98340;-76
2023/04/05 06:22:13;;;;;;;13.63;10.52;;;;;;;;;;4968340;28;99579;-76
2023/04/05 06:24:39;;;;;;;15.05;10.02;;;;;;;;;;4968783;28;100118;-76
2023/04/05 06:27:06;;;;;;;16.45;9.82;;;;;;;;;;4968487;28;98285;-76
2023/04/05 06:29:32;;;;;;;13.35;10.50;;;;;;;;;;4968856;28;98457;-76
2023/04/05 06:31:59;;;;;;;10.63;9.32;;;;;;;;;;4970151;28;99002;-76
2023/04/05 06:34:25;;;;;;;17.25;9.82;;;;;;;;;;4967516;28;98761;-76
2023/04/05 06:36:52;;;;;;;14.38;9.18;;;;;;;;;;4968235;28;99016;-76
2023/04/05 06:39:18;;;;;;;10.43;8.95;;;;;;;;;;4969096;28;98503;-76
2023/04/05 06:41:45;;;;;;;10.20;9.02;;;;;;;;;;4967216;28;99627;-76
2023/04/05 06:44:11;;;;;;;13.88;9.60;;;;;;;;;;4968527;28;99959;-76
2023/04/05 06:46:37;;;;;;;16.45;9.65;;;;;;;;;;4967971;28;98321;-76
2023/04/05 06:49:04;;;;;;;17.08;9.98;;;;;;;;;;4956070;28;99604;-76
2023/04/05 06:51:30;;;;;;;12.02;9.35;;;;;;;;;;4962646;28;100001;-77
2023/04/05 06:53:57;;;;;;;14.07;8.43;;;;;;;;;;4959633;28;99319;-77
2023/04/05 06:56:23;;;;;;;10.45;8.93;;;;;;;;;;4960373;28;100061;-77
2023/04/05 06:58:50;;;;;;;13.85;9.95;;;;;;;;;;4955159;28;98881;-76
2023/04/05 07:01:17;;;;;;;11.95;8.18;;;;;;;;;;4964248;28;99274;-76
2023/04/05 07:03:43;;;;;;;10.15;9.02;;;;;;;;;;4963461;28;100149;-76
2023/04/05 07:06:10;;;;;;;13.50;9.02;;;;;;;;;;4970301;28;98250;-75
2023/04/05 07:08:37;;;;;;;9.95;8.60;;;;;;;;;;4963175;28;98820;-74
2023/04/05 07:11:03;;;;;;;13.55;9.45;;;;;;;;;;4956823;28;98972;-75
2023/04/05 07:13:31;;;;;;;10.93;8.70;;;;;;;;;;4953758;28;98232;-75
2023/04/05 07:16:01;;;;;;;15.27;8.73;;;;;;;;;;4952676;28;98828;-75
2023/04/05 07:18:28;;;;;;;12.13;9.27;;;;;;;;;;4963039;28;98228;-76
2023/04/05 07:20:58;;;;;;;17.17;9.82;;;;;;;;;;4970362;28;99457;-75
2023/04/05 07:23:26;;;;;;;12.32;8.63;;;;;;;;;;4967453;28;99098;-76
2023/04/05 07:25:53;;;;;;;10.65;7.93;;;;;;;;;;4967139;28;98365;-76
2023/04/05 07:28:21;;;;;;;13.75;9.90;;;;;;;;;;4970206;28;98655;-76
2023/04/05 07:30:47;;;;;;;22.77;10.55;;;;;;;;;;4966678;28;100098;-75
2023/04/05 07:33:13;;;;;;;13.52;8.60;;;;;;;;;;4968307;28;98934;-75
2023/04/05 07:35:40;;;;;;;10.60;8.27;;;;;;;;;;4967738;28;98532;-75
2023/04/05 07:38:06;;;;;;;21.23;8.82;;;;;;;;;;4961943;28;100407;-76
2023/04/05 07:40:33;;;;;;;12.43;8.68;;;;;;;;;;4947003;28;99072;-75
2023/04/05 07:42:59;;;;;;;10.57;7.88;;;;;;;;;;4949958;28;100119;-75
2023/04/05 07:45:26;;;;;;;9.45;8.38;;;;;;;;;;4947674;28;98331;-75
2023/04/05 07:47:52;;;;;;;10.50;8.70;;;;;;;;;;4955546;28;99717;-75
2023/04/05 07:50:18;;;;;;;14.07;8.50;;;;;;;;;;4966973;28;99113;-75
2023/04/05 07:52:45;;;;;;;12.77;7.65;;;;;;;;;;4966391;28;98227;-75
2023/04/05 07:55:11;;;;;;;10.30;8.73;;;;;;;;;;4948237;28;99808;-75
2023/04/05 07:57:37;;;;;;;9.63;7.35;;;;;;;;;;4948043;28;99632;-75
2023/04/05 08:00:09;;;;;;;11.32;8.88;;;;;;;;;;4948912;28;98222;-75
2023/04/05 08:02:38;;;;;;;9.27;8.27;;;;;;;;;;4945249;28;98675;-75
2023/04/05 08:05:05;;;;;;;13.90;9.00;;;;;;;;;;4970170;28;98278;-76
2023/04/05 08:07:31;;;;;;;8.70;7.93;;;;;;;;;;4964242;28;98698;-75
2023/04/05 08:09:58;;;;;;;15.65;8.15;;;;;;;;;;4967246;28;99495;-76
2023/04/05 08:12:25;;;;;;;11.07;8.30;;;;;;;;;;4966752;28;98476;-76
2023/04/05 08:14:51;;;;;;;9.95;8.40;;;;;;;;;;4968942;28;99641;-75
2023/04/05 08:17:19;;;;;;;9.68;8.05;;;;;;;;;;4967073;28;99934;-76
2023/04/05 08:19:45;;;;;;;9.90;7.93;;;;;;;;;;4966403;28;98239;-76
2023/04/05 08:22:11;;;;;;;13.32;8.70;;;;;;;;;;4970953;28;99653;-75
2023/04/05 08:24:38;;;;;;;12.10;7.65;;;;;;;;;;4967746;28;99987;-76
2023/04/05 08:27:04;;;;;;;88.60;17.83;;;;;;;;;;4966472;28;98707;-75
2023/04/05 08:29:30;;;;;;;29.33;9.45;;;;;;;;;;4965874;28;99866;-75
2023/04/05 08:31:57;;;;;;;18.98;7.97;;;;;;;;;;4969688;28;99822;-77
2023/04/05 08:34:24;;;;;;;8.23;7.00;;;;;;;;;;4956411;28;99619;-77
2023/04/05 08:36:50;;;;;;;9.25;6.53;;;;;;;;;;4954852;28;99130;-76
2023/04/05 08:39:17;;;;;;;12.25;7.53;;;;;;;;;;4960184;28;98285;-75
2023/04/05 08:41:56;;;;;;;7.57;6.78;;;;;;;;;;4961426;28;99695;-76
2023/04/05 08:44:24;;;;;;;10.60;6.80;;;;;;;;;;4951853;28;98249;-76
2023/04/05 08:46:50;;;;;;;7.60;6.80;;;;;;;;;;4959167;28;99623;-76
2023/04/05 08:49:17;;;;;;;7.63;6.82;;;;;;;;;;4963964;28;100093;-76
2023/04/05 08:51:43;;;;;;;13.52;6.80;;;;;;;;;;4950246;28;98260;-76
2023/04/05 08:54:10;;;;;;;10.20;5.78;;;;;;;;;;4951017;28;99465;-76
2023/04/05 08:56:37;;;;;;;8.23;6.10;;;;;;;;;;4950664;28;99285;-76
2023/04/05 08:59:04;;;;;;;26.98;6.35;;;;;;;;;;4950071;28;98284;-76
2023/04/05 09:01:31;;;;;;;9.93;6.63;;;;;;;;;;4960031;28;99635;-76
2023/04/05 09:04:00;;;;;;;8.13;5.55;;;;;;;;;;4971981;28;100182;-74
2023/04/05 09:06:27;;;;;;;7.35;6.07;;;;;;;;;;4962408;28;99710;-76
2023/04/05 09:08:57;;;;;;;8.50;6.60;;;;;;;;;;4967618;28;100199;-77
2023/04/05 09:11:24;;;;;;;6.93;5.65;;;;;;;;;;4963454;28;98869;-75
2023/04/05 09:13:51;;;;;;;5.03;4.55;;;;;;;;;;4966914;28;98732;-76
2023/04/05 09:16:18;;;;;;;6.10;4.45;;;;;;;;;;4962863;28;99926;-75
2023/04/05 09:18:44;;;;;;;5.75;4.85;;;;;;;;;;4949276;28;100212;-75
2023/04/05 09:21:11;;;;;;;7.20;4.68;;;;;;;;;;4950102;28;99654;-76
2023/04/05 09:23:49;;;;;;;6.80;5.90;;;;;;;;;;4959469;28;100084;-76
2023/04/05 09:26:17;;;;;;;7.90;4.97;;;;;;;;;;4980655;28;99707;-76
2023/04/05 09:28:43;;;;;;;6.80;5.28;;;;;;;;;;4961008;28;99926;-76
2023/04/05 09:31:27;;;;;;;4.70;3.97;;;;;;;;;;4951295;28;98292;-75
2023/04/05 09:33:56;;;;;;;5.97;5.38;;;;;;;;;;4951964;28;99260;-76
2023/04/05 09:36:22;;;;;;;7.20;5.80;;;;;;;;;;4951474;28;99504;-74
2023/04/05 09:38:49;;;;;;;6.57;5.97;;;;;;;;;;4961890;28;98938;-75
2023/04/05 09:41:15;;;;;;;5.85;4.90;;;;;;;;;;4957334;28;99368;-75
2023/04/05 09:43:41;;;;;;;9.98;5.85;;;;;;;;;;4962774;28;99981;-75
2023/04/05 09:46:26;;;;;;;9.55;5.97;;;;;;;;;;4954627;28;98763;-75
2023/04/05 09:48:53;;;;;;;10.27;5.20;;;;;;;;;;4952812;28;99136;-75
2023/04/05 09:51:19;;;;;;;9.15;6.03;;;;;;;;;;4949136;28;98098;-75
2023/04/05 09:54:01;;;;;;;12.32;6.13;;;;;;;;;;4965455;28;98780;-76
2023/04/05 09:56:29;;;;;;;8.63;5.97;;;;;;;;;;4969226;28;98946;-75
2023/04/05 09:59:09;;;;;;;7.00;6.30;;;;;;;;;;4965842;28;98640;-75
2023/04/05 10:01:42;;;;;;;6.45;4.90;;;;;;;;;;4964510;28;99610;-75
2023/04/05 10:04:09;;;;;;;;;;;;;;;;;;4970630;28;99967;-75
2023/04/05 10:06:37;;;;;;;7.38;6.15;;;;;;;;;;4971467;28;125379;-75
2023/04/05 10:09:04;;;;;;;8.63;5.35;;;;;;;;;;4968396;28;98718;-75
2023/04/05 10:11:31;;;;;;;5.30;4.75;;;;;;;;;;4972419;28;98996;-75
2023/04/05 10:13:59;;;;;;;5.68;5.13;;;;;;;;;;4968151;28;99449;-74
2023/04/05 10:16:27;;;;;;;5.78;5.25;;;;;;;;;;4968432;28;99990;-75
2023/04/05 10:18:54;;;;;;;5.85;5.22;;;;;;;;;;4967297;28;99424;-75
2023/04/05 10:21:22;;;;;;;7.55;6.30;;;;;;;;;;4968975;28;99524;-75
2023/04/05 10:23:53;;;;;;;7.38;5.15;;;;;;;;;;4968114;28;100115;-76
2023/04/05 10:26:30;;;;;;;5.97;5.47;;;;;;;;;;4968153;28;98211;-76
2023/04/05 10:29:00;;;;;;;11.98;6.10;;;;;;;;;;4967460;28;99437;-76
2023/04/05 10:31:27;;;;;;;6.70;6.03;;;;;;;;;;4968235;28;100379;-76
2023/04/05 10:34:05;;;;;;;7.03;6.35;;;;;;;;;;4970870;28;98516;-75
2023/04/05 10:36:36;;;;;;;7.30;5.18;;;;;;;;;;4968067;28;99058;-75
2023/04/05 10:39:07;;;;;;;6.00;5.50;;;;;;;;;;4967413;28;98185;-75
2023/04/05 10:41:35;;;;;;;6.13;5.50;;;;;;;;;;4967769;28;99469;-75
2023/04/05 10:44:02;;;;;;;6.88;6.18;;;;;;;;;;4968129;28;100092;-75
2023/04/05 10:46:40;;;;;;;5.22;4.75;;;;;;;;;;4971169;28;98314;-75
2023/04/05 10:49:25;;;;;;;7.00;6.30;;;;;;;;;;4968353;28;99813;-75
2023/04/05 10:51:52;;;;;;;10.05;6.00;;;;;;;;;;4966558;28;101121;-76
2023/04/05 10:54:19;;;;;;;7.82;6.05;;;;;;;;;;4968507;28;99010;-75
2023/04/05 10:56:45;;;;;;;10.38;6.20;;;;;;;;;;4967715;28;100078;-76
2023/04/05 10:59:12;;;;;;;9.50;6.13;;;;;;;;;;4964990;28;98474;-76
2023/04/05 11:01:39;;;;;;;9.25;6.50;;;;;;;;;;4962592;28;99622;-75
2023/04/05 11:04:12;;;;;;;10.88;5.93;;;;;;;;;;4966959;28;99302;-76
2023/04/05 11:06:38;;;;;;;8.38;6.55;;;;;;;;;;4968435;28;98260;-76
2023/04/05 11:09:07;;;;;;;8.52;6.32;;;;;;;;;;4967299;28;98583;-75
2023/04/05 11:11:37;;;;;;;8.63;5.90;;;;;;;;;;4968833;28;99041;-75
2023/04/05 11:14:16;;;;;;;10.32;5.53;;;;;;;;;;4967897;28;98321;-76
2023/04/05 11:16:44;;;;;;;6.38;5.78;;;;;;;;;;4961378;28;100125;-76
2023/04/05 11:19:11;;;;;;;8.73;6.47;;;;;;;;;;4961607;28;99239;-76
2023/04/05 11:21:37;;;;;;;6.63;5.18;;;;;;;;;;4950431;28;99473;-75
2023/04/05 11:24:05;;;;;;;7.85;5.80;;;;;;;;;;4947512;28;99809;-75
2023/04/05 11:26:32;;;;;;;6.28;5.45;;;;;;;;;;4961460;28;98840;-76
2023/04/05 11:28:58;;;;;;;7.00;5.97;;;;;;;;;;4959777;28;99206;-76
2023/04/05 11:31:28;;;;;;;7.32;5.85;;;;;;;;;;4951289;28;100086;-76
2023/04/05 11:33:58;;;;;;;7.68;5.97;;;;;;;;;;4962094;28;99797;-75
2023/04/05 11:36:32;;;;;;;6.65;5.93;;;;;;;;;;4960761;28;98687;-76
2023/04/05 11:39:16;;;;;;;7.57;5.45;;;;;;;;;;4968485;28;99783;-77
2023/04/05 11:41:43;;;;;;;9.25;4.95;;;;;;;;;;4964482;28;99605;-76
2023/04/05 11:44:14;;;;;;;8.15;5.15;;;;;;;;;;4962600;28;102245;-77
2023/04/05 11:46:40;;;;;;;6.60;5.60;;;;;;;;;;4952272;28;98565;-75
2023/04/05 11:49:07;;;;;;;6.85;6.13;;;;;;;;;;4956030;28;99989;-76
2023/04/05 11:51:33;;;;;;;5.93;5.10;;;;;;;;;;4947894;28;98986;-76
2023/04/05 11:54:00;;;;;;;9.75;6.15;;;;;;;;;;4948699;28;98249;-76
2023/04/05 11:56:26;;;;;;;7.05;5.97;;;;;;;;;;4948078;28;98843;-76
2023/04/05 11:58:57;;;;;;;8.45;6.10;;;;;;;;;;4951984;28;100057;-77
2023/04/05 12:01:23;;;;;;;11.10;6.25;;;;;;;;;;4967919;28;98099;-77
2023/04/05 12:03:53;;;;;;;12.02;6.28;;;;;;;;;;4951465;28;100110;-77
2023/04/05 12:06:24;;;;;;;6.50;5.85;;;;;;;;;;4947299;28;99311;-76
2023/04/05 12:08:51;;;;;;;13.85;6.57;;;;;;;;;;4948860;28;98628;-76
2023/04/05 12:11:31;;;;;;;7.47;5.80;;;;;;;;;;4955884;28;99887;-76
2023/04/05 12:14:00;;;;;;;6.88;6.25;;;;;;;;;;4956431;28;99449;-76
2023/04/05 12:16:27;;;;;;;7.43;5.88;;;;;;;;;;4971173;28;98896;-76
2023/04/05 12:18:58;;;;;;;8.55;5.85;;;;;;;;;;4970311;28;99509;-76
2023/04/05 12:21:25;;;;;;;6.57;5.40;;;;;;;;;;4973026;28;98344;-77
2023/04/05 12:23:52;;;;;;;12.23;6.32;;;;;;;;;;4965740;28;99432;-77
2023/04/05 12:26:18;;;;;;;6.65;5.68;;;;;;;;;;4950685;28;98256;-76
2023/04/05 12:28:48;;;;;;;6.40;5.68;;;;;;;;;;4950288;28;98751;-76
2023/04/05 12:31:15;;;;;;;11.38;6.28;;;;;;;;;;4950733;28;100381;-76
2023/04/05 12:33:42;;;;;;;8.20;6.18;;;;;;;;;;4960301;28;98625;-76
2023/04/05 12:36:08;;;;;;;8.93;5.80;;;;;;;;;;4957298;28;99277;-76
2023/04/05 12:38:36;;;;;;;6.88;6.18;;;;;;;;;;4959858;28;100017;-76
2023/04/05 12:41:02;;;;;;;7.10;6.15;;;;;;;;;;4950616;28;98265;-76
2023/04/05 12:43:41;;;;;;;5.97;5.47;;;;;;;;;;4951066;28;99870;-76
2023/04/05 12:46:09;;;;;;;7.13;5.93;;;;;;;;;;4964371;28;98290;-76
2023/04/05 12:48:36;;;;;;;5.82;5.20;;;;;;;;;;4969136;28;98910;-73
2023/04/05 12:51:03;;;;;;;8.75;5.47;;;;;;;;;;4952207;28;100161;-75
2023/04/05 12:53:30;;;;;;;7.47;5.72;;;;;;;;;;4964720;28;98405;-75
2023/04/05 12:56:00;;;;;;;6.82;6.13;;;;;;;;;;4956328;28;99432;-75
2023/04/05 12:58:33;;;;;;;7.15;5.57;;;;;;;;;;4955066;28;100002;-75
2023/04/05 13:01:00;;;;;;;9.35;6.22;;;;;;;;;;4950196;28;98150;-75
2023/04/05 13:03:26;;;;;;;6.38;5.47;;;;;;;;;;4952855;28;99389;-75
2023/04/05 13:05:53;;;;;;;7.65;5.43;;;;;;;;;;4973017;28;99893;-75
2023/04/05 13:08:19;;;;;;;7.20;6.57;;;;;;;;;;4962026;28;98832;-75
2023/04/05 13:10:47;;;;;;;7.95;5.75;;;;;;;;;;4949612;28;100382;-74
2023/04/05 13:13:14;;;;;;;7.10;6.40;;;;;;;;;;4965117;28;98430;-77
2023/04/05 13:15:40;;;;;;;5.85;5.32;;;;;;;;;;4969556;28;98483;-76
2023/04/05 13:18:07;;;;;;;6.80;5.80;;;;;;;;;;4970016;28;98961;-75
2023/04/05 13:20:34;;;;;;;8.35;6.65;;;;;;;;;;4968846;28;98266;-75
2023/04/05 13:23:00;;;;;;;11.88;6.25;;;;;;;;;;4956778;28;99546;-76
2023/04/05 13:25:27;;;;;;;6.47;5.97;;;;;;;;;;4968789;28;98955;-76
2023/04/05 13:27:53;;;;;;;7.00;6.25;;;;;;;;;;4972184;28;98321;-77
2023/04/05 13:30:20;;;;;;;7.05;6.35;;;;;;;;;;4966219;28;100065;-77
2023/04/05 13:32:46;;;;;;;12.93;6.20;;;;;;;;;;4955482;28;98240;-76
2023/04/05 13:35:13;;;;;;;6.80;6.13;;;;;;;;;;4950079;28;98637;-77
2023/04/05 13:37:39;;;;;;;9.60;6.85;;;;;;;;;;4965465;28;99398;-76
2023/04/05 13:40:06;;;;;;;13.88;6.47;;;;;;;;;;4960169;28;98270;-76
2023/04/05 13:42:32;;;;;;;7.18;6.05;;;;;;;;;;4950618;28;98547;-77
2023/04/05 13:44:58;;;;;;;6.15;5.55;;;;;;;;;;4957880;28;99587;-77
2023/04/05 13:47:25;;;;;;;5.35;4.75;;;;;;;;;;4949612;28;98295;-76
2023/04/05 13:49:51;;;;;;;7.35;6.35;;;;;;;;;;4952820;28;99328;-75
2023/04/05 13:52:18;;;;;;;7.40;6.22;;;;;;;;;;4950848;28;98856;-77
2023/04/05 13:54:44;;;;;;;8.13;6.13;;;;;;;;;;4967173;28;99432;-76
2023/04/05 13:57:12;;;;;;;6.28;5.72;;;;;;;;;;4958834;28;100107;-76
2023/04/05 13:59:39;;;;;;;8.23;6.45;;;;;;;;;;4950215;28;98394;-76
2023/04/05 14:02:06;;;;;;;6.10;5.50;;;;;;;;;;4951551;28;99429;-77
2023/04/05 14:04:33;;;;;;;7.78;5.88;;;;;;;;;;4968338;28;99983;-77
2023/04/05 14:06:59;;;;;;;7.28;6.50;;;;;;;;;;4968773;28;98294;-76
2023/04/05 14:09:26;;;;;;;9.73;6.63;;;;;;;;;;4958920;28;99028;-77
2023/04/05 14:11:52;;;;;;;6.88;6.28;;;;;;;;;;4970163;28;100173;-77
2023/04/05 14:14:19;;;;;;;6.55;5.88;;;;;;;;;;4969500;28;99724;-77
2023/04/05 14:16:45;;;;;;;7.35;6.65;;;;;;;;;;4968788;28;98963;-76
2023/04/05 14:19:12;;;;;;;8.00;6.72;;;;;;;;;;4968020;28;98120;-77
2023/04/05 14:21:39;;;;;;;6.57;5.97;;;;;;;;;;4968998;28;98803;-77
2023/04/05 14:24:06;;;;;;;7.88;7.13;;;;;;;;;;4971244;28;100157;-76
2023/04/05 14:26:33;;;;;;;7.35;6.50;;;;;;;;;;4956784;28;98279;-77
2023/04/05 14:28:59;;;;;;;8.82;6.00;;;;;;;;;;4950067;28;98869;-77
2023/04/05 14:31:26;;;;;;;7.78;7.00;;;;;;;;;;4965385;28;99717;-77
2023/04/05 14:33:53;;;;;;;8.52;6.78;;;;;;;;;;4970674;28;98376;-77
2023/04/05 14:36:20;;;;;;;10.15;7.07;;;;;;;;;;4967636;28;99256;-76
2023/04/05 14:38:46;;;;;;;6.65;6.10;;;;;;;;;;4948916;28;98424;-76
2023/04/05 14:41:13;;;;;;;7.63;6.90;;;;;;;;;;4958645;28;98655;-76
2023/04/05 14:43:40;;;;;;;9.23;6.05;;;;;;;;;;4951239;28;99287;-77